Time,TemperatureF,DewpointF,PressureIn,WindDirection,WindDirectionDegrees,WindSpeedMPH,WindSpeedGustMPH,Humidity,HourlyPrecipIn,Conditions,Clouds,dailyrainin,SoftwareType,DateUTC
2013-10-20 00:03:00,47.7,31.0,29.85,WNW,296,3.0,7.0,53,0.00,,,0.00,weatherlink.com 1.10,2013-10-20 06:03:00,
2013-10-20 00:18:00,47.4,31.0,29.85,WNW,294,3.0,7.0,54,0.00,,,0.00,weatherlink.com 1.10,2013-10-20 06:18:00,
2013-10-20 00:33:00,47.1,31.0,29.85,NW,304,1.0,5.0,55,0.00,,,0.00,weatherlink.com 1.10,2013-10-20 06:33:00,
2013-10-20 00:48:00,47.0,31.0,29.85,NW,311,4.0,10.0,55,0.00,,,0.00,weatherlink.com 1.10,2013-10-20 06:48:00,
2013-10-20 01:03:00,47.1,32.0,29.86,NW,310,4.0,7.0,56,0.00,,,0.00,weatherlink.com 1.10,2013-10-20 07:03:00,
2013-10-20 01:18:00,47.0,33.0,29.86,NNW,330,5.0,12.0,58,0.00,,,0.00,weatherlink.com 1.10,2013-10-20 07:18:00,
2013-10-20 01:33:00,46.6,33.0,29.85,NW,311,6.0,12.0,59,0.00,,,0.00,weatherlink.com 1.10,2013-10-20 07:33:00,
2013-10-20 01:48:00,46.1,33.0,29.86,NNW,333,11.0,11.0,61,0.00,,,0.00,weatherlink.com 1.10,2013-10-20 07:48:00,
2013-10-20 02:04:00,45.9,33.0,29.86,NW,306,4.0,9.0,62,0.00,,,0.00,weatherlink.com 1.10,2013-10-20 08:04:00,
2013-10-20 02:19:00,45.5,33.0,29.85,NNW,345,4.0,10.0,63,0.00,,,0.00,weatherlink.com 1.10,2013-10-20 08:19:00,
2013-10-20 02:34:00,45.0,34.0,29.85,WNW,287,4.0,9.0,65,0.00,,,0.00,weatherlink.com 1.10,2013-10-20 08:34:00,
2013-10-20 02:49:00,44.5,33.0,29.85,West,277,3.0,8.0,65,0.00,,,0.00,weatherlink.com 1.10,2013-10-20 08:49:00,
2013-10-20 03:04:00,44.2,33.0,29.85,WNW,289,2.0,10.0,66,0.00,,,0.00,weatherlink.com 1.10,2013-10-20 09:04:00,
2013-10-20 03:19:00,43.9,33.0,29.85,WNW,300,2.0,7.0,66,0.00,,,0.00,weatherlink.com 1.10,2013-10-20 09:19:00,
2013-10-20 03:34:00,43.9,33.0,29.85,WNW,289,3.0,8.0,66,0.00,,,0.00,weatherlink.com 1.10,2013-10-20 09:34:00,
2013-10-20 03:49:00,43.9,33.0,29.85,NW,313,6.0,11.0,66,0.00,,,0.00,weatherlink.com 1.10,2013-10-20 09:49:00,
2013-10-20 04:04:00,44.0,33.0,29.84,North,360,0.0,10.0,66,0.00,,,0.00,weatherlink.com 1.10,2013-10-20 10:04:00,
2013-10-20 04:19:00,44.2,33.0,29.84,NW,311,6.0,12.0,66,0.00,,,0.00,weatherlink.com 1.10,2013-10-20 10:19:00,
2013-10-20 04:34:00,44.4,33.0,29.84,WNW,282,6.0,13.0,64,0.00,,,0.00,weatherlink.com 1.10,2013-10-20 10:34:00,
2013-10-20 04:49:00,44.6,33.0,29.84,West,273,5.0,14.0,63,0.00,,,0.00,weatherlink.com 1.10,2013-10-20 10:49:00,
2013-10-20 05:04:00,44.5,32.0,29.84,NW,304,2.0,11.0,62,0.00,,,0.00,weatherlink.com 1.10,2013-10-20 11:04:00,
2013-10-20 05:19:00,44.4,32.0,29.84,NW,306,7.0,15.0,62,0.00,,,0.00,weatherlink.com 1.10,2013-10-20 11:19:00,
2013-10-20 05:34:00,44.2,31.0,29.84,WNW,292,7.0,16.0,61,0.00,,,0.00,weatherlink.com 1.10,2013-10-20 11:34:00,
2013-10-20 05:49:00,43.9,31.0,29.84,WNW,285,5.0,9.0,62,0.00,,,0.00,weatherlink.com 1.10,2013-10-20 11:49:00,
2013-10-20 06:04:00,43.8,31.0,29.85,WNW,285,5.0,12.0,61,0.00,,,0.00,weatherlink.com 1.10,2013-10-20 12:04:00,
2013-10-20 06:19:00,43.6,30.0,29.86,West,280,7.0,19.0,60,0.00,,,0.00,weatherlink.com 1.10,2013-10-20 12:19:00,
2013-10-20 06:34:00,43.4,31.0,29.86,West,270,5.0,11.0,61,0.00,,,0.00,weatherlink.com 1.10,2013-10-20 12:34:00,
2013-10-20 06:49:00,43.0,32.0,29.87,NNW,331,6.0,16.0,65,0.00,,,0.00,weatherlink.com 1.10,2013-10-20 12:49:00,
2013-10-20 07:04:00,42.0,32.0,29.88,NNW,335,12.0,12.0,69,0.00,,,0.00,weatherlink.com 1.10,2013-10-20 13:04:00,
2013-10-20 07:19:00,41.7,33.0,29.89,NW,304,4.0,14.0,72,0.00,,,0.00,weatherlink.com 1.10,2013-10-20 13:19:00,
2013-10-20 07:34:00,40.7,34.0,29.89,NNW,347,5.0,5.0,76,0.00,,,0.00,weatherlink.com 1.10,2013-10-20 13:34:00,
2013-10-20 07:49:00,40.8,33.0,29.90,NNW,330,1.0,4.0,74,0.00,,,0.00,weatherlink.com 1.10,2013-10-20 13:49:00,
2013-10-20 08:04:00,41.1,32.0,29.90,NW,315,7.0,10.0,71,0.00,,,0.00,weatherlink.com 1.10,2013-10-20 14:04:00,
2013-10-20 08:19:00,42.0,31.0,29.91,NNW,332,6.0,12.0,66,0.00,,,0.00,weatherlink.com 1.10,2013-10-20 14:19:00,
2013-10-20 08:34:00,42.5,30.0,29.91,West,273,8.0,15.0,62,0.00,,,0.00,weatherlink.com 1.10,2013-10-20 14:34:00,
2013-10-20 08:49:00,42.7,30.0,29.91,NW,306,2.0,12.0,62,0.00,,,0.00,weatherlink.com 1.10,2013-10-20 14:49:00,
2013-10-20 09:04:00,42.7,31.0,29.92,NNW,345,1.0,15.0,63,0.00,,,0.00,weatherlink.com 1.10,2013-10-20 15:04:00,
2013-10-20 09:19:00,43.0,31.0,29.93,West,275,6.0,11.0,63,0.00,,,0.00,weatherlink.com 1.10,2013-10-20 15:19:00,
2013-10-20 09:34:00,42.8,31.0,29.93,NW,311,8.0,10.0,64,0.00,,,0.00,weatherlink.com 1.10,2013-10-20 15:34:00,
2013-10-20 09:49:00,41.7,34.0,29.95,NW,313,6.0,17.0,73,0.00,,,0.00,weatherlink.com 1.10,2013-10-20 15:49:00,
2013-10-20 10:04:00,40.0,35.0,29.95,WNW,302,1.0,6.0,81,0.00,,,0.00,weatherlink.com 1.10,2013-10-20 16:04:00,
2013-10-20 10:19:00,40.1,34.0,29.95,North,5,5.0,8.0,79,0.00,,,0.00,weatherlink.com 1.10,2013-10-20 16:19:00,
2013-10-20 10:34:00,40.5,34.0,29.96,NNE,12,2.0,12.0,78,0.00,,,0.00,weatherlink.com 1.10,2013-10-20 16:34:00,
2013-10-20 10:50:00,41.5,33.0,29.96,NW,306,4.0,13.0,71,0.00,,,0.00,weatherlink.com 1.10,2013-10-20 16:50:00,
2013-10-20 11:05:00,41.8,33.0,29.97,WNW,294,7.0,10.0,71,0.00,,,0.00,weatherlink.com 1.10,2013-10-20 17:05:00,
2013-10-20 11:20:00,40.5,32.0,29.98,North,9,4.0,9.0,73,0.00,,,0.00,weatherlink.com 1.10,2013-10-20 17:20:00,
2013-10-20 11:35:00,40.5,32.0,29.98,NW,305,7.0,15.0,71,0.00,,,0.00,weatherlink.com 1.10,2013-10-20 17:35:00,
2013-10-20 11:50:00,39.8,32.0,29.99,ENE,61,3.0,12.0,74,0.00,,,0.00,weatherlink.com 1.10,2013-10-20 17:50:00,
2013-10-20 12:05:00,39.1,31.0,30.00,NW,321,4.0,14.0,74,0.00,,,0.00,weatherlink.com 1.10,2013-10-20 18:05:00,
2013-10-20 12:20:00,40.1,32.0,29.99,NNW,333,2.0,13.0,73,0.00,,,0.00,weatherlink.com 1.10,2013-10-20 18:20:00,
2013-10-20 12:35:00,40.6,31.0,30.00,NW,309,4.0,13.0,68,0.00,,,0.00,weatherlink.com 1.10,2013-10-20 18:35:00,
2013-10-20 12:50:00,42.0,30.0,29.99,WNW,286,9.0,9.0,63,0.00,,,0.00,weatherlink.com 1.10,2013-10-20 18:50:00,
2013-10-20 13:05:00,42.1,30.0,29.99,NW,318,7.0,14.0,62,0.00,,,0.00,weatherlink.com 1.10,2013-10-20 19:05:00,
2013-10-20 13:20:00,42.1,29.0,30.00,North,10,4.0,17.0,61,0.00,,,0.00,weatherlink.com 1.10,2013-10-20 19:20:00,
2013-10-20 13:35:00,41.8,30.0,30.00,WNW,295,10.0,11.0,64,0.00,,,0.00,weatherlink.com 1.10,2013-10-20 19:35:00,
2013-10-20 13:50:00,41.5,30.0,30.00,NW,309,3.0,7.0,65,0.00,,,0.00,weatherlink.com 1.10,2013-10-20 19:50:00,
2013-10-20 14:05:00,42.7,30.0,30.00,West,279,5.0,17.0,60,0.00,,,0.00,weatherlink.com 1.10,2013-10-20 20:05:00,
2013-10-20 14:20:00,43.8,31.0,30.00,NE,53,3.0,9.0,60,0.00,,,0.00,weatherlink.com 1.10,2013-10-20 20:20:00,
2013-10-20 14:35:00,44.7,29.0,30.00,NNW,336,2.0,15.0,55,0.00,,,0.00,weatherlink.com 1.10,2013-10-20 20:35:00,
2013-10-20 14:50:00,44.2,28.0,30.01,WSW,248,3.0,11.0,53,0.00,,,0.00,weatherlink.com 1.10,2013-10-20 20:50:00,
2013-10-20 15:05:00,43.6,28.0,30.01,North,9,3.0,14.0,55,0.00,,,0.00,weatherlink.com 1.10,2013-10-20 21:05:00,
2013-10-20 15:20:00,43.5,28.0,30.02,WSW,254,3.0,14.0,55,0.00,,,0.00,weatherlink.com 1.10,2013-10-20 21:20:00,
2013-10-20 15:35:00,42.5,28.0,30.02,WNW,288,4.0,12.0,56,0.00,,,0.00,weatherlink.com 1.10,2013-10-20 21:35:00,
2013-10-20 15:50:00,42.3,28.0,30.03,WNW,300,5.0,9.0,58,0.00,,,0.00,weatherlink.com 1.10,2013-10-20 21:50:00,
2013-10-20 16:05:00,42.0,31.0,30.03,North,355,4.0,10.0,64,0.00,,,0.00,weatherlink.com 1.10,2013-10-20 22:05:00,
2013-10-20 16:20:00,40.9,31.0,30.04,NW,311,2.0,7.0,68,0.00,,,0.00,weatherlink.com 1.10,2013-10-20 22:20:00,
2013-10-20 16:35:00,39.3,31.0,30.04,North,360,0.0,9.0,71,0.00,,,0.00,weatherlink.com 1.10,2013-10-20 22:35:00,
2013-10-20 16:50:00,39.1,30.0,30.05,WNW,300,3.0,14.0,71,0.00,,,0.00,weatherlink.com 1.10,2013-10-20 22:50:00,
2013-10-20 17:05:00,39.2,29.0,30.05,NNW,346,4.0,10.0,68,0.00,,,0.00,weatherlink.com 1.10,2013-10-20 23:05:00,
2013-10-20 17:20:00,38.8,29.0,30.06,West,268,9.0,10.0,68,0.00,,,0.00,weatherlink.com 1.10,2013-10-20 23:20:00,
2013-10-20 17:35:00,38.4,29.0,30.07,WNW,303,10.0,11.0,68,0.00,,,0.00,weatherlink.com 1.10,2013-10-20 23:35:00,
2013-10-20 17:50:00,38.3,29.0,30.07,NW,307,3.0,8.0,69,0.00,,,0.00,weatherlink.com 1.10,2013-10-20 23:50:00,
2013-10-20 18:05:00,37.9,29.0,30.08,WNW,300,1.0,3.0,70,0.00,,,0.00,weatherlink.com 1.10,2013-10-21 00:05:00,
2013-10-20 18:20:00,37.9,29.0,30.09,NW,323,0.0,7.0,71,0.00,,,0.00,weatherlink.com 1.10,2013-10-21 00:20:00,
2013-10-20 18:35:00,37.9,29.0,30.09,NW,316,1.0,8.0,71,0.00,,,0.00,weatherlink.com 1.10,2013-10-21 00:35:00,
2013-10-20 18:50:00,37.5,29.0,30.10,WNW,300,0.0,4.0,72,0.00,,,0.00,weatherlink.com 1.10,2013-10-21 00:50:00,
2013-10-20 19:05:00,37.3,29.0,30.09,NW,321,1.0,3.0,73,0.00,,,0.00,weatherlink.com 1.10,2013-10-21 01:05:00,
2013-10-20 19:20:00,36.9,29.0,30.10,NW,309,0.0,2.0,74,0.00,,,0.00,weatherlink.com 1.10,2013-10-21 01:20:00,
2013-10-20 19:35:00,36.5,29.0,30.11,NW,309,0.0,1.0,75,0.00,,,0.00,weatherlink.com 1.10,2013-10-21 01:35:00,
2013-10-20 19:50:00,36.5,30.0,30.11,NW,309,1.0,1.0,76,0.00,,,0.00,weatherlink.com 1.10,2013-10-21 01:50:00,
2013-10-20 20:06:00,36.4,30.0,30.11,WNW,302,0.0,0.0,76,0.00,,,0.00,weatherlink.com 1.10,2013-10-21 02:06:00,
2013-10-20 20:21:00,36.4,30.0,30.12,WNW,302,0.0,1.0,76,0.00,,,0.00,weatherlink.com 1.10,2013-10-21 02:21:00,
2013-10-20 20:36:00,36.6,30.0,30.11,WNW,302,0.0,1.0,76,0.00,,,0.00,weatherlink.com 1.10,2013-10-21 02:36:00,
2013-10-20 20:51:00,37.2,30.0,30.12,NW,323,0.0,5.0,74,0.00,,,0.00,weatherlink.com 1.10,2013-10-21 02:51:00,
2013-10-20 21:06:00,37.5,30.0,30.12,West,280,2.0,4.0,74,0.00,,,0.00,weatherlink.com 1.10,2013-10-21 03:06:00,
2013-10-20 21:21:00,37.3,30.0,30.13,West,280,0.0,0.0,74,0.00,,,0.00,weatherlink.com 1.10,2013-10-21 03:21:00,
2013-10-20 21:36:00,36.9,30.0,30.13,West,280,0.0,1.0,75,0.00,,,0.00,weatherlink.com 1.10,2013-10-21 03:36:00,
2013-10-20 21:51:00,37.5,30.0,30.12,West,275,0.0,2.0,73,0.00,,,0.00,weatherlink.com 1.10,2013-10-21 03:51:00,
2013-10-20 22:06:00,37.5,30.0,30.13,West,275,0.0,2.0,73,0.00,,,0.00,weatherlink.com 1.10,2013-10-21 04:06:00,
2013-10-20 22:21:00,38.0,29.0,30.13,West,269,0.0,2.0,71,0.00,,,0.00,weatherlink.com 1.10,2013-10-21 04:21:00,
2013-10-20 22:36:00,38.4,29.0,30.13,NNW,335,0.0,2.0,70,0.00,,,0.00,weatherlink.com 1.10,2013-10-21 04:36:00,
2013-10-20 22:51:00,38.8,29.0,30.13,West,281,1.0,5.0,68,0.00,,,0.00,weatherlink.com 1.10,2013-10-21 04:51:00,
2013-10-20 23:06:00,38.9,29.0,30.12,West,279,1.0,2.0,68,0.00,,,0.00,weatherlink.com 1.10,2013-10-21 05:06:00,
2013-10-20 23:21:00,38.9,29.0,30.12,West,275,0.0,2.0,67,0.00,,,0.00,weatherlink.com 1.10,2013-10-21 05:21:00,
2013-10-20 23:36:00,38.9,28.0,30.11,NW,321,3.0,7.0,66,0.00,,,0.00,weatherlink.com 1.10,2013-10-21 05:36:00,
2013-10-20 23:51:00,38.9,28.0,30.12,NNW,337,2.0,10.0,66,0.00,,,0.00,weatherlink.com 1.10,2013-10-21 05:51:00,